createdAt,value
2022-12-29T00:02:34.734Z,95557.84
2022-12-29T00:07:36.520Z,95559.00
2022-12-29T00:12:56.770Z,95573.66
2022-12-29T00:17:58.297Z,95563.63
2022-12-29T00:23:18.607Z,95544.66
2022-12-29T00:28:38.911Z,95549.66
2022-12-29T00:33:59.158Z,95533.41
2022-12-29T00:39:22.588Z,95536.13
2022-12-29T00:44:24.145Z,95545.81
2022-12-29T00:49:31.788Z,95544.31
2022-12-29T00:54:36.656Z,95530.41
2022-12-29T00:59:39.687Z,95526.19
2022-12-29T01:04:41.252Z,95528.53
2022-12-29T01:10:02.327Z,95522.75
2022-12-29T01:15:04.496Z,95533.16
2022-12-29T01:20:06.632Z,95530.81
2022-12-29T01:25:08.969Z,95531.63
2022-12-29T01:30:13.581Z,95523.47
2022-12-29T01:35:15.754Z,95516.47
2022-12-29T01:40:17.461Z,95512.56
2022-12-29T01:45:19.994Z,95507.94
2022-12-29T01:50:25.297Z,95509.09
2022-12-29T01:55:30.348Z,95506.72
2022-12-29T02:00:32.140Z,95513.31
2022-12-29T02:05:40.377Z,95499.34
2022-12-29T02:10:43.017Z,95493.09
2022-12-29T02:16:20.516Z,95483.03
2022-12-29T02:21:57.269Z,95493.44
2022-12-29T02:27:25.150Z,95489.97
2022-12-29T02:32:29.644Z,95489.97
2022-12-29T02:37:43.101Z,95478.75
2022-12-29T02:43:02.796Z,95463.66
2022-12-29T02:48:27.301Z,95465.94
2022-12-29T02:53:49.147Z,95455.84
2022-12-29T02:58:50.800Z,95467.84
2022-12-29T03:04:08.500Z,95466.69
2022-12-29T03:09:28.121Z,95462.41
2022-12-29T03:15:16.614Z,95452.72
2022-12-29T03:20:24.853Z,95461.56
2022-12-29T03:25:36.801Z,95455.81
2022-12-29T03:30:44.658Z,95447.69
2022-12-29T03:35:50.274Z,95438.81
2022-12-29T03:40:56.571Z,95443.16
2022-12-29T03:45:59.784Z,95431.16
2022-12-29T03:51:01.375Z,95425.41
2022-12-29T03:56:03.776Z,95437.78
2022-12-29T04:01:05.531Z,95425.00
2022-12-29T04:06:09.825Z,95425.84
2022-12-29T04:11:18.223Z,95425.91
2022-12-29T04:16:20.318Z,95434.03
2022-12-29T04:21:22.427Z,95431.75
2022-12-29T04:26:24.156Z,95427.53
2022-12-29T04:31:35.099Z,95436.81
2022-12-29T04:36:37.053Z,95448.41
2022-12-29T04:41:38.837Z,95440.28
2022-12-29T04:46:43.058Z,95444.19
2022-12-29T04:51:53.393Z,95439.91
2022-12-29T04:56:55.529Z,95443.41
2022-12-29T05:01:57.169Z,95446.91
2022-12-29T05:06:59.171Z,95447.69
2022-12-29T05:12:00.885Z,95437.63
2022-12-29T05:17:02.575Z,95439.19
2022-12-29T05:22:04.281Z,95443.47
2022-12-29T05:27:06.790Z,95440.75
2022-12-29T05:32:23.721Z,95427.56
2022-12-29T05:37:25.498Z,95432.19
2022-12-29T05:42:27.076Z,95429.88
2022-12-29T05:47:47.173Z,95433.28
2022-12-29T05:53:07.139Z,95429.03
2022-12-29T05:58:10.938Z,95430.97
2022-12-29T06:03:12.756Z,95437.16
2022-12-29T06:08:14.460Z,95428.69
2022-12-29T06:13:16.067Z,95437.63
2022-12-29T06:18:20.693Z,95434.13
2022-12-29T06:23:22.764Z,95435.69
2022-12-29T06:28:24.805Z,95427.56
2022-12-29T06:33:28.188Z,95446.16
2022-12-29T06:38:29.806Z,95441.53
2022-12-29T06:43:33.133Z,95446.25
2022-12-29T06:48:53.992Z,95453.94
2022-12-29T06:53:55.523Z,95453.16
2022-12-29T06:58:57.162Z,95460.06
2022-12-29T07:03:58.776Z,95455.38
2022-12-29T07:09:00.381Z,95451.84
2022-12-29T07:14:02.067Z,95451.47
2022-12-29T07:19:04.001Z,95454.56
2022-12-29T07:24:05.957Z,95455.28
2022-12-29T07:29:07.499Z,95449.38
2022-12-29T07:34:09.742Z,95437.78
2022-12-29T07:39:12.555Z,95435.03
2022-12-29T07:44:14.167Z,95444.66
2022-12-29T07:49:30.250Z,95444.25
2022-12-29T07:54:32.006Z,95436.88
2022-12-29T07:59:33.689Z,95443.09
2022-12-29T08:04:35.328Z,95460.53
2022-12-29T08:09:36.977Z,95470.63
2022-12-29T08:14:38.580Z,95474.53
2022-12-29T08:19:40.288Z,95472.31
2022-12-29T08:24:41.827Z,95477.00
2022-12-29T08:29:43.405Z,95476.31
2022-12-29T08:34:45.164Z,95481.03
2022-12-29T08:39:46.704Z,95483.00
2022-12-29T08:44:48.261Z,95488.47
2022-12-29T08:49:49.778Z,95483.13
2022-12-29T08:54:51.467Z,95495.59
2022-12-29T08:59:53.196Z,95485.13
2022-12-29T09:04:54.871Z,95494.47
2022-12-29T09:09:56.603Z,95493.78
2022-12-29T09:14:58.217Z,95493.13
2022-12-29T09:19:59.705Z,95491.97
2022-12-29T09:25:01.302Z,95479.19
2022-12-29T09:30:05.445Z,95477.31
2022-12-29T09:35:07.291Z,95478.88
2022-12-29T09:40:23.258Z,95484.81
2022-12-29T09:45:40.922Z,95479.06
2022-12-29T09:50:47.880Z,95472.97
2022-12-29T09:55:52.769Z,95459.09
2022-12-29T10:01:05.654Z,95461.16
2022-12-29T10:06:45.569Z,95451.56
2022-12-29T10:12:07.514Z,95448.91
2022-12-29T10:17:20.485Z,95452.09
2022-12-29T10:22:48.192Z,95449.09
2022-12-29T10:27:51.517Z,95439.44
2022-12-29T10:32:57.578Z,95436.44
2022-12-29T10:38:23.987Z,95425.63
2022-12-29T10:43:39.214Z,95418.66
2022-12-29T10:48:40.863Z,95422.19
2022-12-29T10:54:07.435Z,95418.38
2022-12-29T10:59:21.860Z,95410.25
2022-12-29T11:04:35.577Z,95406.06
2022-12-29T11:09:43.360Z,95409.97
2022-12-29T11:14:45.105Z,95408.19
2022-12-29T11:19:46.728Z,95402.09
2022-12-29T11:24:50.040Z,95395.19
2022-12-29T11:29:53.060Z,95394.50
2022-12-29T11:34:54.715Z,95388.00
2022-12-29T11:40:00.315Z,95382.63
2022-12-29T11:45:10.915Z,95382.69
2022-12-29T11:50:19.564Z,95380.41
2022-12-29T11:55:26.707Z,95382.81
2022-12-29T12:00:31.805Z,95373.88
2022-12-29T12:05:53.633Z,95376.66
2022-12-29T12:11:13.074Z,95373.91
2022-12-29T12:16:19.611Z,95347.41
2022-12-29T12:21:45.082Z,95352.81
2022-12-29T12:27:16.201Z,95362.91
2022-12-29T12:32:47.551Z,95347.66
2022-12-29T12:38:30.824Z,95355.84
2022-12-29T12:43:47.260Z,95346.06
2022-12-29T12:49:02.418Z,95341.34
2022-12-29T12:54:15.835Z,95337.78
2022-12-29T12:59:43.288Z,95340.09
2022-12-29T13:05:00.373Z,95338.50
2022-12-29T13:10:41.237Z,95333.81
2022-12-29T13:15:53.856Z,95324.44
2022-12-29T13:21:12.465Z,95343.91
2022-12-29T13:26:22.565Z,95340.75
2022-12-29T13:31:43.535Z,95322.34
2022-12-29T13:36:50.052Z,95331.75
2022-12-29T13:41:54.344Z,95320.78
2022-12-29T13:47:00.084Z,95323.53
2022-12-29T13:52:17.816Z,95330.16
2022-12-29T13:57:51.632Z,95337.16
2022-12-29T14:03:44.539Z,95330.94
2022-12-29T14:08:47.132Z,95334.78
2022-12-29T14:13:49.780Z,95339.47
2022-12-29T14:18:51.482Z,95340.25
2022-12-29T14:23:54.905Z,95327.72
2022-12-29T14:29:01.417Z,95345.66
2022-12-29T14:34:12.505Z,95358.91
2022-12-29T14:39:45.206Z,95377.28
2022-12-29T14:44:57.535Z,95374.16
2022-12-29T14:50:07.588Z,95375.69
2022-12-29T14:55:18.210Z,95369.44
2022-12-29T15:00:25.477Z,95370.63
2022-12-29T15:05:38.719Z,95371.81
2022-12-29T15:10:52.453Z,95373.78
2022-12-29T15:15:54.074Z,95376.50
2022-12-29T15:21:04.389Z,95382.00
2022-12-29T15:26:07.797Z,95387.03
2022-12-29T15:31:15.354Z,95386.28
2022-12-29T15:36:26.857Z,95383.16
2022-12-29T15:42:01.128Z,95386.28
2022-12-29T15:47:29.606Z,95394.84
2022-12-29T15:52:33.741Z,95390.19
2022-12-29T15:57:44.008Z,95387.84
2022-12-29T16:02:45.788Z,95383.94
2022-12-29T16:07:59.358Z,95380.06
2022-12-29T16:13:07.005Z,95383.97
2022-12-29T16:18:26.613Z,95384.75
2022-12-29T16:23:30.780Z,95387.13
2022-12-29T16:28:39.893Z,95387.13
2022-12-29T16:33:46.950Z,95388.69
2022-12-29T16:38:48.555Z,95389.84
2022-12-29T16:44:18.835Z,95389.09
2022-12-29T16:49:23.674Z,95392.59
2022-12-29T16:54:37.792Z,95373.91
2022-12-29T16:59:43.768Z,95384.03
2022-12-29T17:04:49.335Z,95388.72
2022-12-29T17:09:51.477Z,95384.06
2022-12-29T17:14:57.502Z,95391.47
2022-12-29T17:20:07.601Z,95397.72
2022-12-29T17:25:13.685Z,95400.47
2022-12-29T17:30:25.054Z,95389.13
2022-12-29T17:35:28.833Z,95394.56
2022-12-29T17:40:33.306Z,95401.63
2022-12-29T17:45:34.873Z,95394.63
2022-12-29T17:50:36.514Z,95392.31
2022-12-29T17:55:38.933Z,95390.38
2022-12-29T18:00:40.733Z,95390.38
2022-12-29T18:05:42.749Z,95389.56
2022-12-29T18:10:45.133Z,95389.16
2022-12-29T18:15:47.123Z,95392.28
2022-12-29T18:20:50.680Z,95385.66
2022-12-29T18:25:59.947Z,95385.66
2022-12-29T18:31:02.345Z,95387.19
2022-12-29T18:36:05.423Z,95404.75
2022-12-29T18:41:15.705Z,95410.59
2022-12-29T18:46:22.800Z,95420.34
2022-12-29T18:51:26.096Z,95429.69
2022-12-29T18:56:27.625Z,95446.81
2022-12-29T19:01:29.329Z,95470.63
2022-12-29T19:06:30.997Z,95465.53
2022-12-29T19:11:32.992Z,95471.78
2022-12-29T19:16:34.612Z,95462.78
2022-12-29T19:21:37.662Z,95464.75
2022-12-29T19:26:40.467Z,95461.59
2022-12-29T19:31:42.328Z,95467.84
2022-12-29T19:36:45.087Z,95463.91
2022-12-29T19:41:46.651Z,95474.84
2022-12-29T19:46:48.264Z,95464.34
2022-12-29T19:51:49.968Z,95470.16
2022-12-29T19:56:51.576Z,95469.38
2022-12-29T20:01:53.247Z,95465.50
2022-12-29T20:06:54.961Z,95470.56
2022-12-29T20:11:56.472Z,95463.91
2022-12-29T20:17:10.861Z,95471.34
2022-12-29T20:22:13.119Z,95474.84
2022-12-29T20:27:14.781Z,95482.28
2022-12-29T20:32:20.807Z,95486.53
2022-12-29T20:37:22.518Z,95479.91
2022-12-29T20:42:24.098Z,95476.84
2022-12-29T20:47:25.681Z,95468.25
2022-12-29T20:52:27.455Z,95476.44
2022-12-29T20:57:35.242Z,95466.28
2022-12-29T21:02:50.587Z,95476.84
2022-12-29T21:07:53.405Z,95470.97
2022-12-29T21:12:54.923Z,95467.47
2022-12-29T21:17:56.456Z,95467.88
2022-12-29T21:23:00.145Z,95466.69
2022-12-29T21:28:01.688Z,95466.69
2022-12-29T21:33:04.460Z,95472.94
2022-12-29T21:38:06.809Z,95479.56
2022-12-29T21:43:11.233Z,95482.28
2022-12-29T21:48:23.645Z,95479.56
2022-12-29T21:53:37.703Z,95467.09
2022-12-29T21:59:00.036Z,95476.06
2022-12-29T22:04:20.287Z,95473.72
2022-12-29T22:09:43.801Z,95485.44
2022-12-29T22:14:45.696Z,95486.97
2022-12-29T22:19:47.325Z,95489.72
2022-12-29T22:24:48.937Z,95499.47
2022-12-29T22:29:50.637Z,95510.38
2022-12-29T22:34:52.363Z,95515.47
2022-12-29T22:39:54.048Z,95516.63
2022-12-29T22:44:55.595Z,95527.56
2022-12-29T22:49:57.224Z,95537.72
2022-12-29T22:55:04.594Z,95536.16
2022-12-29T23:00:09.646Z,95536.19
2022-12-29T23:05:11.426Z,95551.41
2022-12-29T23:10:13.096Z,95549.47
2022-12-29T23:15:14.629Z,95568.59
2022-12-29T23:20:16.251Z,95574.84
2022-12-29T23:25:17.774Z,95587.34
2022-12-29T23:30:19.340Z,95595.91
2022-12-29T23:35:20.887Z,95590.47
2022-12-29T23:40:22.455Z,95596.69
2022-12-29T23:45:23.978Z,95616.97
2022-12-29T23:50:25.661Z,95634.09
2022-12-29T23:55:27.299Z,95642.25
